Terminal Aerodrome Forecast
Issued by NWS

Home | Current Version | Previous Version | Graphics & Text | Print | Product List | Glossary On
Versions: 1 2 3 4 5 6 7 8 9 10 11 12 13 14 15 16 17 18
000
FTUS42 KMHX 191100
TAFISO
TAF
KISO 191137Z 1912/2012 00000KT P6SM BKN080
      TEMPO 1912/1914 SCT080
     FM191400 01005KT P6SM SCT250
     FM200800 03002KT P6SM BKN080
      AMD LTD TO CLD VIS AND WIND=

USA.gov is the U.S. government's official web portal to all federal, state and local government web resources and services.